sensor_id;sensor_type;location;lat;lon;timestamp;P1;durP1;ratioP1;P2;durP2;ratioP2
4808;SDS011;2418;49.930;8.606;2022-09-09T00:00:35;1.10;;;1.10;;
4808;SDS011;2418;49.930;8.606;2022-09-09T00:05:34;1.00;;;1.00;;
4808;SDS011;2418;49.930;8.606;2022-09-09T00:08:04;4.45;;;1.20;;
4808;SDS011;2418;49.930;8.606;2022-09-09T00:10:40;2.73;;;1.13;;
4808;SDS011;2418;49.930;8.606;2022-09-09T00:21:08;3.30;;;1.20;;
4808;SDS011;2418;49.930;8.606;2022-09-09T00:23:43;4.60;;;1.52;;
4808;SDS011;2418;49.930;8.606;2022-09-09T00:26:14;1.52;;;1.40;;
4808;SDS011;2418;49.930;8.606;2022-09-09T00:28:51;2.13;;;1.10;;
4808;SDS011;2418;49.930;8.606;2022-09-09T00:31:20;3.85;;;1.83;;
4808;SDS011;2418;49.930;8.606;2022-09-09T00:33:48;5.00;;;1.60;;
4808;SDS011;2418;49.930;8.606;2022-09-09T00:36:16;2.72;;;1.30;;
4808;SDS011;2418;49.930;8.606;2022-09-09T00:38:55;1.60;;;1.50;;
4808;SDS011;2418;49.930;8.606;2022-09-09T00:41:22;2.38;;;1.60;;
4808;SDS011;2418;49.930;8.606;2022-09-09T00:44:02;4.13;;;1.42;;
4808;SDS011;2418;49.930;8.606;2022-09-09T00:49:28;3.03;;;1.70;;
4808;SDS011;2418;49.930;8.606;2022-09-09T01:05:19;3.40;;;1.53;;
4808;SDS011;2418;49.930;8.606;2022-09-09T01:07:47;4.00;;;1.70;;
4808;SDS011;2418;49.930;8.606;2022-09-09T01:10:17;6.67;;;1.70;;
4808;SDS011;2418;49.930;8.606;2022-09-09T01:12:50;3.90;;;1.80;;
4808;SDS011;2418;49.930;8.606;2022-09-09T01:15:36;6.60;;;1.58;;
4808;SDS011;2418;49.930;8.606;2022-09-09T01:18:08;5.70;;;1.50;;
4808;SDS011;2418;49.930;8.606;2022-09-09T01:20:47;2.65;;;1.85;;
4808;SDS011;2418;49.930;8.606;2022-09-09T01:26:04;3.73;;;1.70;;
4808;SDS011;2418;49.930;8.606;2022-09-09T01:28:35;5.10;;;2.00;;
4808;SDS011;2418;49.930;8.606;2022-09-09T01:31:02;3.75;;;1.40;;
4808;SDS011;2418;49.930;8.606;2022-09-09T01:33:29;1.95;;;1.30;;
4808;SDS011;2418;49.930;8.606;2022-09-09T01:35:56;3.03;;;1.40;;
4808;SDS011;2418;49.930;8.606;2022-09-09T01:38:24;2.20;;;1.50;;
4808;SDS011;2418;49.930;8.606;2022-09-09T01:40:50;1.88;;;1.65;;
4808;SDS011;2418;49.930;8.606;2022-09-09T01:43:17;5.03;;;1.80;;
4808;SDS011;2418;49.930;8.606;2022-09-09T01:45:44;4.50;;;2.00;;
4808;SDS011;2418;49.930;8.606;2022-09-09T01:48:11;3.80;;;1.70;;
4808;SDS011;2418;49.930;8.606;2022-09-09T01:50:37;1.60;;;1.60;;
4808;SDS011;2418;49.930;8.606;2022-09-09T01:53:03;3.77;;;1.70;;
4808;SDS011;2418;49.930;8.606;2022-09-09T01:55:39;4.15;;;1.90;;
4808;SDS011;2418;49.930;8.606;2022-09-09T02:00:56;10.47;;;2.20;;
4808;SDS011;2418;49.930;8.606;2022-09-09T02:03:37;2.00;;;1.80;;
4808;SDS011;2418;49.930;8.606;2022-09-09T02:08:36;1.55;;;1.45;;
4808;SDS011;2418;49.930;8.606;2022-09-09T02:11:19;6.35;;;2.50;;
4808;SDS011;2418;49.930;8.606;2022-09-09T02:13:47;4.85;;;2.10;;
4808;SDS011;2418;49.930;8.606;2022-09-09T02:16:15;2.50;;;1.60;;
4808;SDS011;2418;49.930;8.606;2022-09-09T02:18:51;5.55;;;2.10;;
4808;SDS011;2418;49.930;8.606;2022-09-09T02:21:18;2.65;;;1.88;;
4808;SDS011;2418;49.930;8.606;2022-09-09T02:23:46;4.70;;;2.40;;
4808;SDS011;2418;49.930;8.606;2022-09-09T02:26:12;8.45;;;2.10;;
4808;SDS011;2418;49.930;8.606;2022-09-09T02:28:44;5.95;;;2.45;;
4808;SDS011;2418;49.930;8.606;2022-09-09T02:31:11;6.68;;;1.92;;
4808;SDS011;2418;49.930;8.606;2022-09-09T02:33:43;4.22;;;2.00;;
4808;SDS011;2418;49.930;8.606;2022-09-09T02:36:10;3.10;;;1.90;;
4808;SDS011;2418;49.930;8.606;2022-09-09T02:38:38;1.85;;;1.75;;
4808;SDS011;2418;49.930;8.606;2022-09-09T02:41:06;2.30;;;2.10;;
4808;SDS011;2418;49.930;8.606;2022-09-09T02:43:33;2.60;;;1.80;;
4808;SDS011;2418;49.930;8.606;2022-09-09T02:48:30;5.07;;;1.98;;
4808;SDS011;2418;49.930;8.606;2022-09-09T02:51:06;4.32;;;1.30;;
4808;SDS011;2418;49.930;8.606;2022-09-09T02:56:20;4.20;;;1.60;;
4808;SDS011;2418;49.930;8.606;2022-09-09T02:58:47;2.90;;;1.70;;
4808;SDS011;2418;49.930;8.606;2022-09-09T03:01:14;3.65;;;1.80;;
4808;SDS011;2418;49.930;8.606;2022-09-09T03:03:40;2.65;;;1.70;;
4808;SDS011;2418;49.930;8.606;2022-09-09T03:06:07;6.40;;;1.75;;
4808;SDS011;2418;49.930;8.606;2022-09-09T03:08:33;6.32;;;1.92;;
4808;SDS011;2418;49.930;8.606;2022-09-09T03:10:59;5.93;;;1.80;;
4808;SDS011;2418;49.930;8.606;2022-09-09T03:13:27;3.28;;;1.38;;
4808;SDS011;2418;49.930;8.606;2022-09-09T03:15:54;3.20;;;1.40;;
4808;SDS011;2418;49.930;8.606;2022-09-09T03:18:20;1.60;;;1.50;;
4808;SDS011;2418;49.930;8.606;2022-09-09T03:20:46;4.25;;;1.50;;
4808;SDS011;2418;49.930;8.606;2022-09-09T03:23:16;4.80;;;1.60;;
4808;SDS011;2418;49.930;8.606;2022-09-09T03:25:47;1.95;;;1.40;;
4808;SDS011;2418;49.930;8.606;2022-09-09T03:28:14;7.68;;;1.90;;
4808;SDS011;2418;49.930;8.606;2022-09-09T03:30:40;6.07;;;2.00;;
4808;SDS011;2418;49.930;8.606;2022-09-09T03:33:06;3.38;;;1.50;;
4808;SDS011;2418;49.930;8.606;2022-09-09T03:35:32;4.30;;;2.20;;
4808;SDS011;2418;49.930;8.606;2022-09-09T03:37:58;5.90;;;1.90;;
4808;SDS011;2418;49.930;8.606;2022-09-09T03:40:25;3.00;;;2.20;;
4808;SDS011;2418;49.930;8.606;2022-09-09T03:42:51;5.80;;;1.80;;
4808;SDS011;2418;49.930;8.606;2022-09-09T03:45:17;6.50;;;1.88;;
4808;SDS011;2418;49.930;8.606;2022-09-09T03:47:43;3.30;;;1.30;;
4808;SDS011;2418;49.930;8.606;2022-09-09T03:50:09;2.20;;;1.90;;
4808;SDS011;2418;49.930;8.606;2022-09-09T03:52:36;2.60;;;1.90;;
4808;SDS011;2418;49.930;8.606;2022-09-09T03:55:02;5.38;;;1.95;;
4808;SDS011;2418;49.930;8.606;2022-09-09T03:57:28;2.58;;;1.70;;
4808;SDS011;2418;49.930;8.606;2022-09-09T03:59:54;2.67;;;1.52;;
4808;SDS011;2418;49.930;8.606;2022-09-09T04:02:21;3.78;;;1.92;;
4808;SDS011;2418;49.930;8.606;2022-09-09T04:04:47;4.70;;;1.92;;
4808;SDS011;2418;49.930;8.606;2022-09-09T04:07:13;10.60;;;1.90;;
4808;SDS011;2418;49.930;8.606;2022-09-09T04:09:39;3.58;;;1.85;;
4808;SDS011;2418;49.930;8.606;2022-09-09T04:12:05;5.40;;;2.15;;
4808;SDS011;2418;49.930;8.606;2022-09-09T04:14:31;5.75;;;2.00;;
4808;SDS011;2418;49.930;8.606;2022-09-09T04:16:57;4.32;;;2.10;;
4808;SDS011;2418;49.930;8.606;2022-09-09T04:19:24;4.90;;;1.98;;
4808;SDS011;2418;49.930;8.606;2022-09-09T04:21:50;3.67;;;1.80;;
4808;SDS011;2418;49.930;8.606;2022-09-09T04:24:16;9.50;;;2.43;;
4808;SDS011;2418;49.930;8.606;2022-09-09T04:26:42;3.45;;;2.35;;
4808;SDS011;2418;49.930;8.606;2022-09-09T04:29:10;5.32;;;2.28;;
4808;SDS011;2418;49.930;8.606;2022-09-09T04:31:36;4.28;;;1.85;;
4808;SDS011;2418;49.930;8.606;2022-09-09T04:34:06;2.60;;;1.85;;
4808;SDS011;2418;49.930;8.606;2022-09-09T04:36:32;6.20;;;1.70;;
4808;SDS011;2418;49.930;8.606;2022-09-09T04:38:59;5.13;;;1.80;;
4808;SDS011;2418;49.930;8.606;2022-09-09T04:41:25;3.13;;;1.48;;
4808;SDS011;2418;49.930;8.606;2022-09-09T04:43:51;1.97;;;1.87;;
4808;SDS011;2418;49.930;8.606;2022-09-09T04:46:18;2.88;;;1.80;;
4808;SDS011;2418;49.930;8.606;2022-09-09T04:48:44;4.10;;;1.93;;
4808;SDS011;2418;49.930;8.606;2022-09-09T04:51:11;4.38;;;1.75;;
4808;SDS011;2418;49.930;8.606;2022-09-09T04:53:38;2.83;;;1.80;;
4808;SDS011;2418;49.930;8.606;2022-09-09T04:56:05;2.58;;;1.88;;
4808;SDS011;2418;49.930;8.606;2022-09-09T04:58:31;6.22;;;1.80;;
4808;SDS011;2418;49.930;8.606;2022-09-09T05:01:07;5.70;;;2.50;;
4808;SDS011;2418;49.930;8.606;2022-09-09T05:03:34;7.47;;;1.90;;
4808;SDS011;2418;49.930;8.606;2022-09-09T05:06:06;8.40;;;2.10;;
4808;SDS011;2418;49.930;8.606;2022-09-09T05:08:35;4.35;;;1.83;;
4808;SDS011;2418;49.930;8.606;2022-09-09T05:11:01;4.47;;;1.77;;
4808;SDS011;2418;49.930;8.606;2022-09-09T05:13:28;5.45;;;2.03;;
4808;SDS011;2418;49.930;8.606;2022-09-09T05:15:56;4.40;;;1.83;;
4808;SDS011;2418;49.930;8.606;2022-09-09T05:18:22;3.33;;;1.80;;
4808;SDS011;2418;49.930;8.606;2022-09-09T05:20:49;2.13;;;1.70;;
4808;SDS011;2418;49.930;8.606;2022-09-09T05:23:15;2.08;;;1.80;;
4808;SDS011;2418;49.930;8.606;2022-09-09T05:25:41;4.75;;;2.00;;
4808;SDS011;2418;49.930;8.606;2022-09-09T05:28:08;3.20;;;1.60;;
4808;SDS011;2418;49.930;8.606;2022-09-09T05:30:34;3.50;;;1.80;;
4808;SDS011;2418;49.930;8.606;2022-09-09T05:33:00;3.90;;;1.50;;
4808;SDS011;2418;49.930;8.606;2022-09-09T05:35:26;3.83;;;1.50;;
4808;SDS011;2418;49.930;8.606;2022-09-09T05:37:52;3.60;;;1.70;;
4808;SDS011;2418;49.930;8.606;2022-09-09T05:40:18;5.90;;;1.60;;
4808;SDS011;2418;49.930;8.606;2022-09-09T05:42:44;3.65;;;1.63;;
4808;SDS011;2418;49.930;8.606;2022-09-09T05:45:10;3.70;;;1.60;;
4808;SDS011;2418;49.930;8.606;2022-09-09T05:47:36;3.30;;;1.60;;
4808;SDS011;2418;49.930;8.606;2022-09-09T05:50:02;5.20;;;1.73;;
4808;SDS011;2418;49.930;8.606;2022-09-09T05:52:28;3.30;;;1.40;;
4808;SDS011;2418;49.930;8.606;2022-09-09T05:54:54;2.87;;;1.60;;
4808;SDS011;2418;49.930;8.606;2022-09-09T05:57:21;4.22;;;1.50;;
4808;SDS011;2418;49.930;8.606;2022-09-09T05:59:47;2.08;;;1.63;;
4808;SDS011;2418;49.930;8.606;2022-09-09T06:02:14;5.00;;;1.77;;
4808;SDS011;2418;49.930;8.606;2022-09-09T06:04:41;2.85;;;1.38;;
4808;SDS011;2418;49.930;8.606;2022-09-09T06:07:07;3.47;;;1.77;;
4808;SDS011;2418;49.930;8.606;2022-09-09T06:09:33;1.60;;;1.20;;
4808;SDS011;2418;49.930;8.606;2022-09-09T06:11:59;5.20;;;1.20;;
4808;SDS011;2418;49.930;8.606;2022-09-09T06:14:25;8.40;;;1.10;;
4808;SDS011;2418;49.930;8.606;2022-09-09T06:16:52;6.10;;;1.45;;
4808;SDS011;2418;49.930;8.606;2022-09-09T06:19:18;4.40;;;1.10;;
4808;SDS011;2418;49.930;8.606;2022-09-09T06:21:44;6.67;;;1.50;;
4808;SDS011;2418;49.930;8.606;2022-09-09T06:24:10;1.90;;;1.10;;
4808;SDS011;2418;49.930;8.606;2022-09-09T06:26:39;2.35;;;1.05;;
4808;SDS011;2418;49.930;8.606;2022-09-09T06:29:06;5.47;;;1.30;;
4808;SDS011;2418;49.930;8.606;2022-09-09T06:31:33;3.65;;;1.00;;
4808;SDS011;2418;49.930;8.606;2022-09-09T06:34:00;2.10;;;1.20;;
4808;SDS011;2418;49.930;8.606;2022-09-09T06:38:52;1.33;;;0.90;;
4808;SDS011;2418;49.930;8.606;2022-09-09T06:41:18;4.35;;;1.23;;
4808;SDS011;2418;49.930;8.606;2022-09-09T06:43:45;3.80;;;1.00;;
4808;SDS011;2418;49.930;8.606;2022-09-09T06:46:15;2.35;;;1.20;;
4808;SDS011;2418;49.930;8.606;2022-09-09T06:48:41;3.13;;;1.00;;
4808;SDS011;2418;49.930;8.606;2022-09-09T06:51:09;4.07;;;1.58;;
4808;SDS011;2418;49.930;8.606;2022-09-09T06:53:38;3.53;;;1.33;;
4808;SDS011;2418;49.930;8.606;2022-09-09T06:58:37;2.00;;;0.90;;
4808;SDS011;2418;49.930;8.606;2022-09-09T07:01:08;4.97;;;1.20;;
4808;SDS011;2418;49.930;8.606;2022-09-09T07:03:34;4.28;;;1.20;;
4808;SDS011;2418;49.930;8.606;2022-09-09T07:06:00;2.83;;;1.35;;
4808;SDS011;2418;49.930;8.606;2022-09-09T07:08:26;1.50;;;1.10;;
4808;SDS011;2418;49.930;8.606;2022-09-09T07:10:53;7.15;;;1.42;;
4808;SDS011;2418;49.930;8.606;2022-09-09T07:13:28;4.20;;;1.65;;
4808;SDS011;2418;49.930;8.606;2022-09-09T07:15:54;5.70;;;1.58;;
4808;SDS011;2418;49.930;8.606;2022-09-09T07:18:20;3.40;;;1.10;;
4808;SDS011;2418;49.930;8.606;2022-09-09T07:20:52;2.93;;;1.10;;
4808;SDS011;2418;49.930;8.606;2022-09-09T07:23:20;3.10;;;1.10;;
4808;SDS011;2418;49.930;8.606;2022-09-09T07:25:46;4.55;;;1.30;;
4808;SDS011;2418;49.930;8.606;2022-09-09T07:28:12;3.73;;;1.20;;
4808;SDS011;2418;49.930;8.606;2022-09-09T07:30:38;1.77;;;1.30;;
4808;SDS011;2418;49.930;8.606;2022-09-09T07:33:05;9.93;;;1.88;;
4808;SDS011;2418;49.930;8.606;2022-09-09T07:35:31;2.03;;;1.23;;
4808;SDS011;2418;49.930;8.606;2022-09-09T07:37:57;6.00;;;1.40;;
4808;SDS011;2418;49.930;8.606;2022-09-09T07:40:23;2.40;;;1.20;;
4808;SDS011;2418;49.930;8.606;2022-09-09T07:42:49;4.40;;;1.70;;
4808;SDS011;2418;49.930;8.606;2022-09-09T07:45:15;5.53;;;1.10;;
4808;SDS011;2418;49.930;8.606;2022-09-09T07:47:41;7.80;;;1.90;;
4808;SDS011;2418;49.930;8.606;2022-09-09T07:50:08;6.82;;;1.40;;
4808;SDS011;2418;49.930;8.606;2022-09-09T07:52:34;3.40;;;1.50;;
4808;SDS011;2418;49.930;8.606;2022-09-09T07:55:00;7.35;;;1.70;;
4808;SDS011;2418;49.930;8.606;2022-09-09T07:57:27;4.93;;;1.60;;
4808;SDS011;2418;49.930;8.606;2022-09-09T07:59:55;3.97;;;1.23;;
4808;SDS011;2418;49.930;8.606;2022-09-09T08:02:21;1.90;;;1.27;;
4808;SDS011;2418;49.930;8.606;2022-09-09T08:04:48;3.30;;;1.40;;
4808;SDS011;2418;49.930;8.606;2022-09-09T08:07:14;5.43;;;1.30;;
4808;SDS011;2418;49.930;8.606;2022-09-09T08:09:41;7.25;;;1.60;;
4808;SDS011;2418;49.930;8.606;2022-09-09T08:12:07;3.70;;;1.23;;
4808;SDS011;2418;49.930;8.606;2022-09-09T08:14:33;5.75;;;1.75;;
4808;SDS011;2418;49.930;8.606;2022-09-09T08:17:00;3.40;;;1.48;;
4808;SDS011;2418;49.930;8.606;2022-09-09T08:19:26;6.05;;;1.70;;
4808;SDS011;2418;49.930;8.606;2022-09-09T08:21:54;4.10;;;1.10;;
4808;SDS011;2418;49.930;8.606;2022-09-09T08:24:21;9.25;;;1.70;;
4808;SDS011;2418;49.930;8.606;2022-09-09T08:26:48;5.00;;;1.25;;
4808;SDS011;2418;49.930;8.606;2022-09-09T08:29:14;8.75;;;1.27;;
4808;SDS011;2418;49.930;8.606;2022-09-09T08:31:47;4.18;;;1.83;;
4808;SDS011;2418;49.930;8.606;2022-09-09T08:34:14;3.13;;;1.40;;
4808;SDS011;2418;49.930;8.606;2022-09-09T08:36:41;2.47;;;1.73;;
4808;SDS011;2418;49.930;8.606;2022-09-09T08:39:08;4.43;;;1.27;;
4808;SDS011;2418;49.930;8.606;2022-09-09T08:52:00;3.33;;;1.50;;
4808;SDS011;2418;49.930;8.606;2022-09-09T08:54:27;3.58;;;1.48;;
4808;SDS011;2418;49.930;8.606;2022-09-09T08:56:57;2.50;;;1.40;;
4808;SDS011;2418;49.930;8.606;2022-09-09T08:59:23;2.75;;;1.05;;
4808;SDS011;2418;49.930;8.606;2022-09-09T09:09:36;4.60;;;1.50;;
4808;SDS011;2418;49.930;8.606;2022-09-09T09:12:19;3.95;;;1.20;;
4808;SDS011;2418;49.930;8.606;2022-09-09T09:14:46;9.75;;;1.27;;
4808;SDS011;2418;49.930;8.606;2022-09-09T09:17:14;5.35;;;1.50;;
4808;SDS011;2418;49.930;8.606;2022-09-09T09:19:41;3.70;;;1.50;;
4808;SDS011;2418;49.930;8.606;2022-09-09T09:22:26;4.03;;;1.38;;
4808;SDS011;2418;49.930;8.606;2022-09-09T09:27:34;3.40;;;1.10;;
4808;SDS011;2418;49.930;8.606;2022-09-09T09:30:14;6.33;;;1.60;;
4808;SDS011;2418;49.930;8.606;2022-09-09T09:32:40;6.30;;;1.40;;
4808;SDS011;2418;49.930;8.606;2022-09-09T09:35:11;6.18;;;1.50;;
4808;SDS011;2418;49.930;8.606;2022-09-09T09:37:37;4.25;;;1.40;;
4808;SDS011;2418;49.930;8.606;2022-09-09T09:40:09;9.65;;;1.48;;
4808;SDS011;2418;49.930;8.606;2022-09-09T09:42:35;2.80;;;1.23;;
4808;SDS011;2418;49.930;8.606;2022-09-09T09:45:07;4.20;;;1.20;;
4808;SDS011;2418;49.930;8.606;2022-09-09T09:47:35;7.28;;;1.50;;
4808;SDS011;2418;49.930;8.606;2022-09-09T09:50:01;3.72;;;1.30;;
4808;SDS011;2418;49.930;8.606;2022-09-09T09:52:28;2.53;;;1.50;;
4808;SDS011;2418;49.930;8.606;2022-09-09T09:54:54;9.70;;;1.80;;
4808;SDS011;2418;49.930;8.606;2022-09-09T09:57:25;6.90;;;1.30;;
4808;SDS011;2418;49.930;8.606;2022-09-09T10:00:27;6.82;;;1.77;;
4808;SDS011;2418;49.930;8.606;2022-09-09T10:02:46;7.13;;;1.63;;
4808;SDS011;2418;49.930;8.606;2022-09-09T10:07:41;6.57;;;1.60;;
4808;SDS011;2418;49.930;8.606;2022-09-09T10:10:13;8.18;;;1.20;;
4808;SDS011;2418;49.930;8.606;2022-09-09T10:12:50;3.45;;;1.40;;
4808;SDS011;2418;49.930;8.606;2022-09-09T10:15:25;7.10;;;1.75;;
4808;SDS011;2418;49.930;8.606;2022-09-09T10:18:13;5.85;;;1.40;;
4808;SDS011;2418;49.930;8.606;2022-09-09T10:20:51;3.97;;;1.60;;
4808;SDS011;2418;49.930;8.606;2022-09-09T10:23:27;6.95;;;1.50;;
4808;SDS011;2418;49.930;8.606;2022-09-09T10:26:59;3.85;;;1.13;;
4808;SDS011;2418;49.930;8.606;2022-09-09T10:28:58;3.28;;;1.10;;
4808;SDS011;2418;49.930;8.606;2022-09-09T10:37:00;7.43;;;1.50;;
4808;SDS011;2418;49.930;8.606;2022-09-09T10:42:01;4.60;;;1.08;;
4808;SDS011;2418;49.930;8.606;2022-09-09T10:47:24;5.03;;;0.90;;
4808;SDS011;2418;49.930;8.606;2022-09-09T10:55:26;3.80;;;1.30;;
4808;SDS011;2418;49.930;8.606;2022-09-09T10:57:54;4.07;;;1.20;;
4808;SDS011;2418;49.930;8.606;2022-09-09T11:03:01;2.92;;;0.90;;
4808;SDS011;2418;49.930;8.606;2022-09-09T11:05:41;2.00;;;1.10;;
4808;SDS011;2418;49.930;8.606;2022-09-09T11:08:10;2.70;;;1.00;;
4808;SDS011;2418;49.930;8.606;2022-09-09T11:10:52;5.57;;;1.20;;
4808;SDS011;2418;49.930;8.606;2022-09-09T11:15:54;1.25;;;0.90;;
4808;SDS011;2418;49.930;8.606;2022-09-09T11:18:22;8.30;;;1.15;;
4808;SDS011;2418;49.930;8.606;2022-09-09T11:20:50;6.50;;;1.02;;
4808;SDS011;2418;49.930;8.606;2022-09-09T11:23:18;5.20;;;0.90;;
4808;SDS011;2418;49.930;8.606;2022-09-09T11:25:48;1.75;;;1.10;;
4808;SDS011;2418;49.930;8.606;2022-09-09T11:39:23;4.30;;;1.35;;
4808;SDS011;2418;49.930;8.606;2022-09-09T11:41:40;3.90;;;1.38;;
4808;SDS011;2418;49.930;8.606;2022-09-09T11:44:12;4.00;;;1.00;;
4808;SDS011;2418;49.930;8.606;2022-09-09T11:46:42;2.90;;;1.10;;
4808;SDS011;2418;49.930;8.606;2022-09-09T11:49:25;5.30;;;1.10;;
4808;SDS011;2418;49.930;8.606;2022-09-09T11:51:52;3.30;;;1.00;;
4808;SDS011;2418;49.930;8.606;2022-09-09T11:56:48;4.63;;;1.10;;
4808;SDS011;2418;49.930;8.606;2022-09-09T11:59:21;3.30;;;1.13;;
4808;SDS011;2418;49.930;8.606;2022-09-09T12:01:57;2.97;;;1.10;;
4808;SDS011;2418;49.930;8.606;2022-09-09T12:06:54;2.88;;;1.27;;
4808;SDS011;2418;49.930;8.606;2022-09-09T12:09:22;2.60;;;0.90;;
4808;SDS011;2418;49.930;8.606;2022-09-09T12:11:49;3.28;;;1.30;;
4808;SDS011;2418;49.930;8.606;2022-09-09T12:17:09;4.17;;;0.87;;
4808;SDS011;2418;49.930;8.606;2022-09-09T12:19:35;9.98;;;1.40;;
4808;SDS011;2418;49.930;8.606;2022-09-09T12:22:06;3.03;;;1.30;;
4808;SDS011;2418;49.930;8.606;2022-09-09T12:24:39;4.50;;;1.17;;
4808;SDS011;2418;49.930;8.606;2022-09-09T12:27:17;2.03;;;0.90;;
4808;SDS011;2418;49.930;8.606;2022-09-09T12:29:58;3.70;;;0.80;;
4808;SDS011;2418;49.930;8.606;2022-09-09T12:32:26;2.70;;;1.00;;
4808;SDS011;2418;49.930;8.606;2022-09-09T12:37:34;1.70;;;0.95;;
4808;SDS011;2418;49.930;8.606;2022-09-09T12:40:01;2.10;;;1.30;;
4808;SDS011;2418;49.930;8.606;2022-09-09T12:42:28;2.20;;;1.30;;
4808;SDS011;2418;49.930;8.606;2022-09-09T12:44:58;3.92;;;1.00;;
4808;SDS011;2418;49.930;8.606;2022-09-09T12:47:26;2.28;;;0.90;;
4808;SDS011;2418;49.930;8.606;2022-09-09T12:49:54;4.72;;;1.10;;
4808;SDS011;2418;49.930;8.606;2022-09-09T12:52:35;1.10;;;0.60;;
4808;SDS011;2418;49.930;8.606;2022-09-09T12:55:03;2.05;;;0.70;;
4808;SDS011;2418;49.930;8.606;2022-09-09T12:57:37;4.90;;;0.80;;
4808;SDS011;2418;49.930;8.606;2022-09-09T13:00:05;1.70;;;0.80;;
4808;SDS011;2418;49.930;8.606;2022-09-09T13:02:32;1.23;;;0.35;;
4808;SDS011;2418;49.930;8.606;2022-09-09T13:05:06;0.90;;;0.40;;
4808;SDS011;2418;49.930;8.606;2022-09-09T13:07:32;0.40;;;0.40;;
4808;SDS011;2418;49.930;8.606;2022-09-09T13:09:58;1.80;;;0.40;;
4808;SDS011;2418;49.930;8.606;2022-09-09T13:12:24;0.60;;;0.40;;
4808;SDS011;2418;49.930;8.606;2022-09-09T13:14:53;0.73;;;0.40;;
4808;SDS011;2418;49.930;8.606;2022-09-09T13:19:48;3.60;;;0.55;;
4808;SDS011;2418;49.930;8.606;2022-09-09T13:22:22;1.80;;;0.70;;
4808;SDS011;2418;49.930;8.606;2022-09-09T13:24:58;0.70;;;0.40;;
4808;SDS011;2418;49.930;8.606;2022-09-09T13:27:28;1.02;;;0.60;;
4808;SDS011;2418;49.930;8.606;2022-09-09T13:29:55;0.50;;;0.50;;
4808;SDS011;2418;49.930;8.606;2022-09-09T13:32:21;4.90;;;0.50;;
4808;SDS011;2418;49.930;8.606;2022-09-09T13:34:51;2.60;;;0.50;;
4808;SDS011;2418;49.930;8.606;2022-09-09T13:37:39;1.45;;;0.60;;
4808;SDS011;2418;49.930;8.606;2022-09-09T13:40:06;0.80;;;0.60;;
4808;SDS011;2418;49.930;8.606;2022-09-09T13:42:41;1.90;;;0.60;;
4808;SDS011;2418;49.930;8.606;2022-09-09T13:45:28;1.70;;;0.70;;
4808;SDS011;2418;49.930;8.606;2022-09-09T13:47:54;0.80;;;0.70;;
4808;SDS011;2418;49.930;8.606;2022-09-09T13:50:28;9.23;;;1.10;;
4808;SDS011;2418;49.930;8.606;2022-09-09T13:52:55;0.80;;;0.52;;
4808;SDS011;2418;49.930;8.606;2022-09-09T13:55:23;1.27;;;0.60;;
4808;SDS011;2418;49.930;8.606;2022-09-09T13:57:54;2.00;;;0.80;;
4808;SDS011;2418;49.930;8.606;2022-09-09T14:00:21;1.17;;;0.50;;
4808;SDS011;2418;49.930;8.606;2022-09-09T14:02:50;3.90;;;0.80;;
4808;SDS011;2418;49.930;8.606;2022-09-09T14:05:17;6.78;;;1.30;;
4808;SDS011;2418;49.930;8.606;2022-09-09T14:07:43;0.63;;;0.63;;
4808;SDS011;2418;49.930;8.606;2022-09-09T14:10:10;2.92;;;0.80;;
4808;SDS011;2418;49.930;8.606;2022-09-09T14:12:36;2.20;;;0.60;;
4808;SDS011;2418;49.930;8.606;2022-09-09T14:15:03;0.50;;;0.50;;
4808;SDS011;2418;49.930;8.606;2022-09-09T14:17:29;0.40;;;0.40;;
4808;SDS011;2418;49.930;8.606;2022-09-09T14:19:56;1.20;;;0.70;;
4808;SDS011;2418;49.930;8.606;2022-09-09T14:22:22;3.50;;;0.90;;
4808;SDS011;2418;49.930;8.606;2022-09-09T14:24:48;0.40;;;0.40;;
4808;SDS011;2418;49.930;8.606;2022-09-09T14:27:15;0.90;;;0.57;;
4808;SDS011;2418;49.930;8.606;2022-09-09T14:29:41;0.80;;;0.50;;
4808;SDS011;2418;49.930;8.606;2022-09-09T14:32:09;1.40;;;0.50;;
4808;SDS011;2418;49.930;8.606;2022-09-09T14:34:36;0.60;;;0.60;;
4808;SDS011;2418;49.930;8.606;2022-09-09T14:37:01;1.50;;;0.80;;
4808;SDS011;2418;49.930;8.606;2022-09-09T14:39:27;1.40;;;0.60;;
4808;SDS011;2418;49.930;8.606;2022-09-09T14:41:53;3.13;;;0.70;;
4808;SDS011;2418;49.930;8.606;2022-09-09T14:44:20;3.20;;;0.70;;
4808;SDS011;2418;49.930;8.606;2022-09-09T14:46:47;1.85;;;0.77;;
4808;SDS011;2418;49.930;8.606;2022-09-09T14:49:15;2.37;;;1.00;;
4808;SDS011;2418;49.930;8.606;2022-09-09T14:51:40;1.00;;;0.70;;
4808;SDS011;2418;49.930;8.606;2022-09-09T14:54:06;3.10;;;1.05;;
4808;SDS011;2418;49.930;8.606;2022-09-09T14:56:33;13.33;;;2.43;;
4808;SDS011;2418;49.930;8.606;2022-09-09T14:58:59;9.23;;;1.70;;
4808;SDS011;2418;49.930;8.606;2022-09-09T15:01:26;4.30;;;1.20;;
4808;SDS011;2418;49.930;8.606;2022-09-09T15:03:57;16.60;;;1.70;;
4808;SDS011;2418;49.930;8.606;2022-09-09T15:06:24;5.38;;;1.00;;
4808;SDS011;2418;49.930;8.606;2022-09-09T15:08:51;2.40;;;0.98;;
4808;SDS011;2418;49.930;8.606;2022-09-09T15:11:18;7.30;;;1.33;;
4808;SDS011;2418;49.930;8.606;2022-09-09T15:13:45;20.20;;;3.20;;
4808;SDS011;2418;49.930;8.606;2022-09-09T15:16:16;3.35;;;2.55;;
4808;SDS011;2418;49.930;8.606;2022-09-09T15:18:42;2.88;;;1.48;;
4808;SDS011;2418;49.930;8.606;2022-09-09T15:21:12;7.07;;;2.85;;
4808;SDS011;2418;49.930;8.606;2022-09-09T15:23:40;2.20;;;0.82;;
4808;SDS011;2418;49.930;8.606;2022-09-09T15:26:06;2.30;;;0.80;;
4808;SDS011;2418;49.930;8.606;2022-09-09T15:28:33;2.00;;;0.80;;
4808;SDS011;2418;49.930;8.606;2022-09-09T15:31:04;24.00;;;2.00;;
4808;SDS011;2418;49.930;8.606;2022-09-09T15:33:32;7.63;;;1.17;;
4808;SDS011;2418;49.930;8.606;2022-09-09T15:35:58;3.88;;;1.30;;
4808;SDS011;2418;49.930;8.606;2022-09-09T15:38:24;1.80;;;0.73;;
4808;SDS011;2418;49.930;8.606;2022-09-09T15:40:56;2.00;;;0.80;;
4808;SDS011;2418;49.930;8.606;2022-09-09T15:43:23;0.80;;;0.80;;
4808;SDS011;2418;49.930;8.606;2022-09-09T15:45:52;11.63;;;3.60;;
4808;SDS011;2418;49.930;8.606;2022-09-09T15:48:30;5.20;;;1.55;;
4808;SDS011;2418;49.930;8.606;2022-09-09T15:51:00;23.48;;;3.50;;
4808;SDS011;2418;49.930;8.606;2022-09-09T15:53:27;2.40;;;0.90;;
4808;SDS011;2418;49.930;8.606;2022-09-09T15:55:55;16.33;;;2.40;;
4808;SDS011;2418;49.930;8.606;2022-09-09T15:58:21;13.50;;;1.70;;
4808;SDS011;2418;49.930;8.606;2022-09-09T16:00:47;2.30;;;1.00;;
4808;SDS011;2418;49.930;8.606;2022-09-09T16:03:13;2.95;;;0.93;;
4808;SDS011;2418;49.930;8.606;2022-09-09T16:05:39;2.77;;;0.90;;
4808;SDS011;2418;49.930;8.606;2022-09-09T16:08:05;2.40;;;1.00;;
4808;SDS011;2418;49.930;8.606;2022-09-09T16:10:31;4.90;;;1.10;;
4808;SDS011;2418;49.930;8.606;2022-09-09T16:12:57;2.10;;;1.13;;
4808;SDS011;2418;49.930;8.606;2022-09-09T16:15:23;3.97;;;1.20;;
4808;SDS011;2418;49.930;8.606;2022-09-09T16:17:53;4.57;;;0.90;;
4808;SDS011;2418;49.930;8.606;2022-09-09T16:20:19;1.90;;;0.75;;
4808;SDS011;2418;49.930;8.606;2022-09-09T16:22:45;17.20;;;2.22;;
4808;SDS011;2418;49.930;8.606;2022-09-09T16:25:11;1.75;;;1.00;;
4808;SDS011;2418;49.930;8.606;2022-09-09T16:27:37;0.95;;;0.90;;
4808;SDS011;2418;49.930;8.606;2022-09-09T16:30:02;2.95;;;0.90;;
4808;SDS011;2418;49.930;8.606;2022-09-09T16:32:29;2.60;;;1.10;;
4808;SDS011;2418;49.930;8.606;2022-09-09T16:34:54;2.67;;;0.70;;
4808;SDS011;2418;49.930;8.606;2022-09-09T16:37:21;1.00;;;0.80;;
4808;SDS011;2418;49.930;8.606;2022-09-09T16:39:47;3.90;;;0.70;;
4808;SDS011;2418;49.930;8.606;2022-09-09T16:42:13;1.50;;;0.75;;
4808;SDS011;2418;49.930;8.606;2022-09-09T16:44:39;1.17;;;0.60;;
4808;SDS011;2418;49.930;8.606;2022-09-09T16:47:04;10.57;;;1.60;;
4808;SDS011;2418;49.930;8.606;2022-09-09T16:49:30;1.27;;;0.73;;
4808;SDS011;2418;49.930;8.606;2022-09-09T16:51:57;1.30;;;0.90;;
4808;SDS011;2418;49.930;8.606;2022-09-09T16:54:23;1.85;;;0.95;;
4808;SDS011;2418;49.930;8.606;2022-09-09T16:56:50;0.88;;;0.82;;
4808;SDS011;2418;49.930;8.606;2022-09-09T16:59:19;1.30;;;0.80;;
4808;SDS011;2418;49.930;8.606;2022-09-09T17:01:47;4.38;;;1.20;;
4808;SDS011;2418;49.930;8.606;2022-09-09T17:04:14;6.70;;;1.70;;
4808;SDS011;2418;49.930;8.606;2022-09-09T17:06:45;5.67;;;1.20;;
4808;SDS011;2418;49.930;8.606;2022-09-09T17:09:11;4.95;;;0.85;;
4808;SDS011;2418;49.930;8.606;2022-09-09T17:11:38;1.70;;;1.00;;
4808;SDS011;2418;49.930;8.606;2022-09-09T17:14:05;1.90;;;0.90;;
4808;SDS011;2418;49.930;8.606;2022-09-09T17:16:31;1.80;;;0.85;;